createdAt,value
2023-03-19T00:04:28.869Z,52.19
2023-03-19T00:09:31.857Z,52.51
2023-03-19T00:14:34.814Z,52.63
2023-03-19T00:19:37.649Z,52.83
2023-03-19T00:24:40.546Z,52.95
2023-03-19T00:29:43.390Z,53.52
2023-03-19T00:34:47.744Z,53.65
2023-03-19T00:39:50.753Z,53.75
2023-03-19T00:44:53.687Z,53.79
2023-03-19T00:49:57.910Z,53.72
2023-03-19T00:55:00.768Z,54.40
2023-03-19T01:00:04.678Z,54.18
2023-03-19T01:05:08.298Z,54.48
2023-03-19T01:10:12.893Z,54.65
2023-03-19T01:15:16.375Z,54.69
2023-03-19T01:20:19.288Z,54.88
2023-03-19T01:25:22.256Z,54.87
2023-03-19T01:30:25.178Z,55.17
2023-03-19T01:35:28.996Z,55.31
2023-03-19T01:40:32.943Z,55.78
2023-03-19T01:45:38.024Z,56.10
2023-03-19T01:50:42.354Z,56.40
2023-03-19T01:55:45.825Z,56.65
2023-03-19T02:00:48.673Z,56.61
2023-03-19T02:05:52.185Z,56.98
2023-03-19T02:10:56.076Z,57.39
2023-03-19T02:15:59.060Z,57.18
2023-03-19T02:21:06.153Z,57.59
2023-03-19T02:26:29.335Z,57.88
2023-03-19T02:31:32.445Z,58.10
2023-03-19T02:36:44.301Z,58.16
2023-03-19T02:41:47.177Z,58.37
2023-03-19T02:46:50.563Z,58.60
2023-03-19T02:51:53.443Z,58.48
2023-03-19T02:56:56.358Z,58.77
2023-03-19T03:01:59.369Z,58.93
2023-03-19T03:07:04.493Z,58.93
2023-03-19T03:12:08.474Z,59.12
2023-03-19T03:17:11.644Z,59.05
2023-03-19T03:22:14.891Z,59.34
2023-03-19T03:27:17.752Z,59.32
2023-03-19T03:32:20.984Z,59.28
2023-03-19T03:37:23.842Z,59.66
2023-03-19T03:42:27.227Z,59.89
2023-03-19T03:47:30.043Z,59.81
2023-03-19T03:52:34.273Z,59.95
2023-03-19T03:57:37.360Z,59.75
2023-03-19T04:02:40.537Z,59.84
2023-03-19T04:07:44.088Z,59.73
2023-03-19T04:12:47.724Z,60.05
2023-03-19T04:17:50.559Z,60.14
2023-03-19T04:22:53.511Z,60.38
2023-03-19T04:27:58.236Z,61.15
2023-03-19T04:33:02.148Z,61.09
2023-03-19T04:38:07.963Z,61.16
2023-03-19T04:43:10.811Z,60.90
2023-03-19T04:48:14.890Z,61.01
2023-03-19T04:53:20.464Z,61.28
2023-03-19T04:58:23.451Z,61.24
2023-03-19T05:03:26.400Z,61.52
2023-03-19T05:08:29.557Z,61.61
2023-03-19T05:13:32.778Z,61.67
2023-03-19T05:18:36.411Z,61.72
2023-03-19T05:23:39.939Z,61.88
2023-03-19T05:28:43.867Z,61.86
2023-03-19T05:33:46.807Z,61.78
2023-03-19T05:38:49.741Z,61.99
2023-03-19T05:43:53.230Z,62.16
2023-03-19T05:48:56.115Z,62.70
2023-03-19T05:54:00.901Z,62.62
2023-03-19T05:59:04.349Z,62.41
2023-03-19T06:04:07.400Z,62.45
2023-03-19T06:09:10.377Z,62.21
2023-03-19T06:14:13.275Z,62.00
2023-03-19T06:19:16.553Z,62.00
2023-03-19T06:24:19.525Z,61.85
2023-03-19T06:29:22.520Z,61.63
2023-03-19T06:34:25.576Z,61.48
2023-03-19T06:39:28.858Z,61.24
2023-03-19T06:44:31.822Z,61.39
2023-03-19T06:49:34.960Z,61.06
2023-03-19T06:54:38.562Z,61.04
2023-03-19T06:59:42.179Z,60.46
2023-03-19T07:04:45.259Z,60.48
2023-03-19T07:09:48.806Z,59.92
2023-03-19T07:14:52.042Z,59.66
2023-03-19T07:19:54.956Z,59.03
2023-03-19T07:24:58.317Z,58.58
2023-03-19T07:30:01.525Z,58.16
2023-03-19T07:35:09.898Z,58.33
2023-03-19T07:40:13.140Z,58.61
2023-03-19T07:45:17.847Z,58.20
2023-03-19T07:50:23.606Z,57.82
2023-03-19T07:55:28.021Z,57.67
2023-03-19T08:00:30.996Z,57.20
2023-03-19T08:05:34.020Z,56.45
2023-03-19T08:10:38.357Z,55.27
2023-03-19T08:15:42.630Z,54.76
2023-03-19T08:20:47.037Z,53.68
2023-03-19T08:25:53.575Z,52.21
2023-03-19T08:30:57.051Z,51.75
2023-03-19T08:36:11.636Z,49.89
2023-03-19T08:41:14.652Z,48.69
2023-03-19T08:46:17.980Z,48.28
2023-03-19T08:51:21.685Z,48.18
2023-03-19T08:56:24.566Z,47.08
2023-03-19T09:01:27.647Z,45.78
2023-03-19T09:06:31.469Z,45.56
2023-03-19T09:11:34.856Z,45.02
2023-03-19T09:16:37.995Z,44.70
2023-03-19T09:21:41.381Z,44.15
2023-03-19T09:26:44.718Z,44.37
2023-03-19T09:31:47.729Z,44.19
2023-03-19T09:36:51.774Z,44.40
2023-03-19T09:42:16.228Z,43.46
2023-03-19T09:47:31.412Z,43.25
2023-03-19T09:52:42.222Z,41.81
2023-03-19T09:57:45.231Z,41.66
2023-03-19T10:03:16.691Z,41.91
2023-03-19T10:08:42.048Z,41.42
2023-03-19T10:14:14.562Z,40.96
2023-03-19T10:19:24.091Z,41.46
2023-03-19T10:24:39.516Z,40.89
2023-03-19T10:29:42.447Z,39.85
2023-03-19T10:34:50.521Z,39.26
2023-03-19T10:39:59.726Z,37.78
2023-03-19T10:45:31.006Z,37.44
2023-03-19T10:51:02.364Z,36.84
2023-03-19T10:56:17.972Z,36.31
2023-03-19T11:01:21.095Z,36.67
2023-03-19T11:06:35.711Z,35.80
2023-03-19T11:11:50.699Z,34.78
2023-03-19T11:17:04.605Z,34.82
2023-03-19T11:22:20.705Z,34.95
2023-03-19T11:27:29.780Z,34.17
2023-03-19T11:33:00.570Z,34.23
2023-03-19T11:38:04.187Z,34.36
2023-03-19T11:43:45.565Z,34.54
2023-03-19T11:49:13.231Z,34.24
2023-03-19T11:54:35.009Z,34.55
2023-03-19T11:59:56.480Z,33.36
2023-03-19T12:05:17.669Z,32.54
2023-03-19T12:11:07.329Z,30.73
2023-03-19T12:16:46.205Z,28.72
2023-03-19T12:22:36.804Z,28.17
2023-03-19T12:28:12.810Z,27.31
2023-03-19T12:33:43.715Z,27.53
2023-03-19T12:39:25.581Z,27.28
2023-03-19T12:44:40.382Z,27.36
2023-03-19T12:50:17.578Z,28.24
2023-03-19T12:55:20.568Z,27.84
2023-03-19T13:00:55.758Z,26.23
2023-03-19T13:06:05.132Z,26.30
2023-03-19T13:11:15.573Z,26.65
2023-03-19T13:16:51.450Z,27.65
2023-03-19T13:21:58.129Z,27.69
2023-03-19T13:27:01.782Z,28.05
2023-03-19T13:32:10.277Z,28.53
2023-03-19T13:37:16.158Z,28.72
2023-03-19T13:42:39.211Z,28.81
2023-03-19T13:47:43.561Z,28.55
2023-03-19T13:53:21.631Z,29.20
2023-03-19T13:58:45.955Z,29.62
2023-03-19T14:04:34.386Z,29.77
2023-03-19T14:09:43.511Z,30.41
2023-03-19T14:15:12.155Z,30.64
2023-03-19T14:20:16.697Z,30.82
2023-03-19T14:25:53.095Z,30.50
2023-03-19T14:30:56.468Z,29.67
2023-03-19T14:35:59.368Z,28.00
2023-03-19T14:41:02.609Z,27.46
2023-03-19T14:46:06.020Z,27.46
2023-03-19T14:52:01.612Z,28.19
2023-03-19T14:57:26.096Z,28.39
2023-03-19T15:02:47.216Z,28.05
2023-03-19T15:07:51.028Z,27.96
2023-03-19T15:13:17.183Z,28.35
2023-03-19T15:18:22.029Z,28.61
2023-03-19T15:23:28.853Z,29.77
2023-03-19T15:28:44.782Z,30.47
2023-03-19T15:33:49.012Z,30.90
2023-03-19T15:38:56.180Z,31.59
2023-03-19T15:44:00.449Z,32.12
2023-03-19T15:49:21.485Z,32.80
2023-03-19T15:54:24.364Z,33.50
2023-03-19T15:59:30.217Z,34.25
2023-03-19T16:04:45.666Z,34.96
2023-03-19T16:09:56.394Z,35.07
2023-03-19T16:14:59.309Z,36.00
2023-03-19T16:20:03.814Z,36.74
2023-03-19T16:25:18.869Z,37.42
2023-03-19T16:30:24.714Z,38.11
2023-03-19T16:35:30.203Z,38.99
2023-03-19T16:40:44.861Z,39.71
2023-03-19T16:46:05.983Z,40.48
2023-03-19T16:51:17.926Z,41.06
2023-03-19T16:56:21.357Z,41.45
2023-03-19T17:01:26.696Z,41.89
2023-03-19T17:06:34.344Z,42.02
2023-03-19T17:11:40.786Z,42.17
2023-03-19T17:16:48.442Z,42.53
2023-03-19T17:21:55.277Z,43.70
2023-03-19T17:27:00.770Z,44.97
2023-03-19T17:32:04.417Z,46.20
2023-03-19T17:37:07.399Z,46.34
2023-03-19T17:42:29.453Z,47.12
2023-03-19T17:47:35.366Z,47.67
2023-03-19T17:52:38.563Z,47.81
2023-03-19T17:57:41.393Z,47.72
2023-03-19T18:02:44.453Z,48.02
2023-03-19T18:07:48.702Z,48.39
2023-03-19T18:12:54.643Z,48.83
2023-03-19T18:17:58.214Z,49.15
2023-03-19T18:23:01.287Z,48.80
2023-03-19T18:28:08.497Z,49.51
2023-03-19T18:33:19.922Z,49.31
2023-03-19T18:38:25.377Z,48.97
2023-03-19T18:43:28.266Z,49.14
2023-03-19T18:48:31.496Z,49.94
2023-03-19T18:53:34.354Z,50.78
2023-03-19T18:58:39.374Z,51.44
2023-03-19T19:03:45.239Z,51.71
2023-03-19T19:08:50.608Z,52.26
2023-03-19T19:13:57.160Z,52.78
2023-03-19T19:19:01.347Z,53.39
2023-03-19T19:24:05.955Z,53.57
2023-03-19T19:29:13.809Z,53.71
2023-03-19T19:34:17.448Z,54.11
2023-03-19T19:39:20.334Z,54.72
2023-03-19T19:44:23.224Z,55.05
2023-03-19T19:49:27.266Z,55.05
2023-03-19T19:54:30.894Z,54.80
2023-03-19T19:59:33.770Z,54.81
2023-03-19T20:04:37.119Z,54.85
2023-03-19T20:09:40.251Z,55.00
2023-03-19T20:14:43.362Z,54.69
2023-03-19T20:19:46.417Z,54.47
2023-03-19T20:24:51.363Z,54.94
2023-03-19T20:29:54.995Z,55.33
2023-03-19T20:35:01.127Z,55.14
2023-03-19T20:40:04.659Z,55.57
2023-03-19T20:45:15.193Z,55.62
2023-03-19T20:50:24.882Z,56.04
2023-03-19T20:55:34.115Z,56.35
2023-03-19T21:00:37.170Z,56.34
2023-03-19T21:05:40.270Z,56.51
2023-03-19T21:10:43.576Z,56.95
2023-03-19T21:15:51.917Z,57.17
2023-03-19T21:20:56.877Z,57.82
2023-03-19T21:26:18.031Z,57.95
2023-03-19T21:31:21.556Z,58.38
2023-03-19T21:36:25.637Z,58.02
2023-03-19T21:41:33.024Z,58.59
2023-03-19T21:46:35.949Z,58.76
2023-03-19T21:51:38.889Z,59.43
2023-03-19T21:56:44.455Z,59.87
2023-03-19T22:01:47.484Z,60.52
2023-03-19T22:06:50.615Z,61.14
2023-03-19T22:11:53.482Z,61.62
2023-03-19T22:16:56.829Z,62.25
2023-03-19T22:22:00.024Z,62.92
2023-03-19T22:27:02.962Z,62.97
2023-03-19T22:32:15.455Z,63.12
2023-03-19T22:37:27.750Z,63.75
2023-03-19T22:42:33.098Z,64.16
2023-03-19T22:47:37.568Z,64.40
2023-03-19T22:52:40.719Z,64.26
2023-03-19T22:57:43.988Z,64.24
2023-03-19T23:02:48.258Z,64.61
2023-03-19T23:08:28.511Z,65.40
2023-03-19T23:13:34.070Z,66.12
2023-03-19T23:18:37.328Z,66.02
2023-03-19T23:23:40.390Z,66.05
2023-03-19T23:28:43.461Z,66.19
2023-03-19T23:33:47.815Z,66.33
2023-03-19T23:38:51.793Z,66.25
2023-03-19T23:43:54.943Z,66.23
2023-03-19T23:48:57.813Z,66.19
2023-03-19T23:54:01.733Z,66.03
2023-03-19T23:59:06.071Z,65.71
